Allouez, MI

8:37 AM EDT on September 30, 2014 (GMT -0400)
Hubbell (Near Hubbell Haven) | Change Station
CLOSE
Current Station
Personal Weather Station
Location: Hubbell, MI
Elevation: 730 ft
Nearby Weather Stations

Elev 730 ft 47.18 °N, 88.43 °W | Updated 0 second ago

Overcast
Overcast
41.0 °F
Feels Like 41 °F
N
1.1
Wind Variable Wind from NE
Gusts 3.6 mph

Today
High -- | Low -- °F
--% Chance of Precip.
Yesterday
High -- | Low -- °F
Precip. -- in
7:51 AM 7:35 PM
Waxing Crescent, 36% visible
Pressure 30.18 in
Visibility 10.0 miles
Clouds Overcast 1700 ft
Windchill 41 °F
Dew Point 38 °F
Humidity 88%
Rainfall 0.00 in
Snow Depth Not available.
UV 0 out of 12
Pollen 1.20 out of 12
Air Quality Not available.
Flu Activity Not available.
METAR KCMX 301153Z AUTO 03003KT 10SM OVC017 05/02 A3014 RMK AO2 SLP218 70001 T00500017 10050 20028 53001

More Conditions Fewer Conditions

Pressure 30.18 in
Visibility 10.0 miles
Clouds Overcast 1700 ft
Windchill 41 °F
Dew Point 38 °F
Humidity 88%
Rainfall 0.00 in
Snow Depth Not available.
UV 0 out of 12
Pollen 1.20 out of 12
Air Quality Not available.
Flu Activity Not available.
METAR KCMX 301153Z AUTO 03003KT 10SM OVC017 05/02 A3014 RMK AO2 SLP218 70001 T00500017 10050 20028 53001

More Conditions Fewer Conditions

10-Day Weather Forecast

Almanac

Astronomy

Sep. 30, 2014 Rise Set
Actual Time 7:51 AM EDT 7:35 PM EDT
Civil Twilight 7:20 AM EDT 8:05 PM EDT
Nautical Twilight 6:45 AM EDT 8:41 PM EDT
Astronomical Twilight 6:08 AM EDT 9:17 PM EDT
Moon 2:17 PM EDT 11:47 PM EDT
Length of Visible Light 12h 44m
Length of Day
11h 43m
Tomorrow will be 3m 23s shorter.
Waxing Crescent, 36% of the Moon is Illuminated
Today
Waxing Crescent
Oct 1
First Quarter
Oct 8
Full
Oct 15
Last Quarter
Oct 23
New

Today's Extremes

State Highs State Lows

Community

WunderPhotos

Upload Photos

1,757,623 photos uploaded!

Nearby

Snow Depth

Station Depth Elevation
No new snow has been reported.

Earthquake Activity

City Distance Mag. Time & Date
No recent earthquake activity has been reported nearby.
Minimum magnitude displayed is 2.5.

Coastal Water Temperatures

Place Temperature
No Stations Reporting

Nearby Weather Stations